Time;durP1;ratioP1;P1;durP2;ratioP2;P2;SDS_P1;SDS_P2;PMS_P1;PMS_P2;Temp;Humidity;BMP_temperature;BMP_pressure;BME280_temperature;BME280_humidity;BME280_pressure;Samples;Min_cycle;Max_cycle;Signal;HPM_P1;HPM_P2
2021/04/21 00:01:06;;;;;;;15.73;10.25;;;9.40;99.90;;;;;;5094401;28;20237;-74
2021/04/21 00:03:33;;;;;;;14.43;9.70;;;9.40;99.90;;;;;;5094397;28;20216;-76
2021/04/21 00:06:00;;;;;;;13.60;9.55;;;9.30;99.90;;;;;;5094718;28;20201;-74
2021/04/21 00:08:29;;;;;;;16.70;10.73;;;9.30;99.90;;;;;;5094531;28;20218;-76
2021/04/21 00:10:58;;;;;;;16.05;10.02;;;9.30;99.90;;;;;;5094289;28;20283;-74
2021/04/21 00:13:26;;;;;;;13.20;9.93;;;9.20;99.90;;;;;;5094417;28;20222;-74
2021/04/21 00:15:52;;;;;;;13.82;10.35;;;9.20;99.90;;;;;;5094513;28;20205;-76
2021/04/21 00:18:20;;;;;;;14.60;10.38;;;9.20;99.90;;;;;;5094626;28;20194;-76
2021/04/21 00:20:53;;;;;;;16.73;10.90;;;9.30;99.90;;;;;;5094016;28;20206;-76
2021/04/21 00:23:20;;;;;;;16.38;11.00;;;9.30;99.90;;;;;;5094096;28;20359;-75
2021/04/21 00:25:52;;;;;;;19.25;11.35;;;9.30;99.90;;;;;;5093948;28;20680;-75
2021/04/21 00:28:18;;;;;;;18.50;11.25;;;9.30;99.90;;;;;;5094156;28;20218;-74
2021/04/21 00:30:47;;;;;;;15.70;11.20;;;9.30;99.90;;;;;;5093799;28;20293;-75
2021/04/21 00:33:17;;;;;;;14.05;9.75;;;9.30;99.90;;;;;;5093569;28;20222;-75
2021/04/21 00:35:45;;;;;;;14.52;10.90;;;9.30;99.90;;;;;;5094000;28;20205;-75
2021/04/21 00:38:14;;;;;;;16.80;11.10;;;9.30;99.90;;;;;;5094046;28;20198;-74
2021/04/21 00:40:54;;;;;;;18.35;11.35;;;9.30;99.90;;;;;;5093617;28;20286;-75
2021/04/21 00:43:27;;;;;;;18.30;11.25;;;9.30;99.90;;;;;;5093898;28;20228;-74
2021/04/21 00:46:02;;;;;;;21.48;11.85;;;9.20;99.90;;;;;;5094248;28;20210;-74
2021/04/21 00:48:38;;;;;;;19.38;11.40;;;9.20;99.90;;;;;;5094183;28;20540;-78
2021/04/21 00:51:09;;;;;;;20.98;11.25;;;9.10;99.90;;;;;;5093897;28;20212;-76
2021/04/21 00:53:39;;;;;;;18.40;11.73;;;9.00;99.90;;;;;;5094449;28;20204;-77
2021/04/21 00:56:15;;;;;;;18.75;12.02;;;9.00;99.90;;;;;;5094224;28;20637;-76
2021/04/21 00:58:47;;;;;;;16.88;10.40;;;9.00;99.90;;;;;;5094844;28;20205;-76
2021/04/21 01:01:16;;;;;;;17.67;12.27;;;8.90;99.90;;;;;;5093756;28;20293;-77
2021/04/21 01:03:44;;;;;;;17.80;11.85;;;8.80;99.90;;;;;;5094242;28;20209;-73
2021/04/21 01:06:13;;;;;;;19.33;12.00;;;8.80;99.90;;;;;;5093611;28;20210;-74
2021/04/21 01:08:43;;;;;;;15.32;10.23;;;8.70;99.90;;;;;;5093396;28;20569;-76
2021/04/21 01:11:14;;;;;;;17.10;11.25;;;8.70;99.90;;;;;;5093366;28;20201;-74
2021/04/21 01:13:47;;;;;;;18.63;11.38;;;8.60;99.90;;;;;;5093076;28;20201;-75
2021/04/21 01:16:17;;;;;;;14.88;10.50;;;8.40;99.90;;;;;;5093545;28;20217;-74
2021/04/21 01:18:46;;;;;;;16.13;11.65;;;8.40;99.90;;;;;;5093427;28;20205;-74
2021/04/21 01:21:16;;;;;;;20.95;10.95;;;8.30;99.90;;;;;;5093039;28;20330;-76
2021/04/21 01:23:55;;;;;;;16.27;11.30;;;8.30;99.90;;;;;;5092905;28;20209;-74
2021/04/21 01:26:42;;;;;;;16.95;11.50;;;8.40;99.90;;;;;;5093074;28;20632;-75
2021/04/21 01:29:13;;;;;;;19.67;11.80;;;8.40;99.90;;;;;;5093118;28;20218;-76
2021/04/21 01:31:40;;;;;;;21.50;12.35;;;8.40;99.90;;;;;;5092852;28;20650;-76
2021/04/21 01:34:10;;;;;;;19.50;11.73;;;8.40;99.90;;;;;;5092837;28;20744;-76
2021/04/21 01:36:39;;;;;;;17.42;11.63;;;8.40;99.90;;;;;;5092939;28;20206;-75
2021/04/21 01:39:09;;;;;;;18.70;11.75;;;8.40;99.90;;;;;;5092861;28;20201;-74
2021/04/21 01:41:41;;;;;;;19.25;12.20;;;8.50;99.90;;;;;;5093116;28;20274;-76
2021/04/21 01:44:12;;;;;;;18.30;12.20;;;8.50;99.90;;;;;;5092667;28;20202;-76
2021/04/21 01:46:41;;;;;;;16.80;10.93;;;8.50;99.90;;;;;;5093023;28;20213;-77
2021/04/21 01:49:30;;;;;;;19.10;11.52;;;8.40;99.90;;;;;;5092804;28;20358;-76
2021/04/21 01:52:06;;;;;;;18.92;12.13;;;8.40;99.90;;;;;;5092786;28;20226;-77
2021/04/21 01:54:35;;;;;;;17.83;11.18;;;8.30;99.90;;;;;;5092978;28;20552;-78
2021/04/21 01:57:11;;;;;;;17.73;12.10;;;8.30;99.90;;;;;;5092788;28;20226;-77
2021/04/21 01:59:43;;;;;;;14.65;10.90;;;8.40;99.90;;;;;;5092553;28;20202;-77
2021/04/21 02:02:16;;;;;;;19.63;11.13;;;8.40;99.90;;;;;;5092639;28;20308;-77
2021/04/21 02:04:58;;;;;;;16.63;11.45;;;8.30;99.90;;;;;;5092725;28;20218;-76
2021/04/21 02:07:39;;;;;;;16.80;10.85;;;8.30;99.90;;;;;;5092570;28;20204;-76
2021/04/21 02:10:14;;;;;;;19.83;12.38;;;8.30;99.90;;;;;;5092455;28;20202;-76
2021/04/21 02:13:21;;;;;;;19.15;12.00;;;8.30;99.90;;;;;;5092269;28;20243;-76
2021/04/21 02:16:02;;;;;;;19.55;11.05;;;8.10;99.90;;;;;;5030005;28;20230;-77
2021/04/21 02:18:44;;;;;;;17.60;11.93;;;8.00;99.90;;;;;;5083649;28;20206;-77
2021/04/21 02:21:17;;;;;;;19.38;11.50;;;8.00;99.90;;;;;;5092511;28;20224;-76
2021/04/21 02:23:52;;;;;;;19.10;12.00;;;8.20;99.90;;;;;;5092154;28;20545;-76
2021/04/21 02:26:25;;;;;;;17.80;11.80;;;8.20;99.90;;;;;;5092569;28;20202;-75
2021/04/21 02:28:59;;;;;;;21.20;12.20;;;8.20;99.90;;;;;;5092245;28;20304;-75
2021/04/21 02:31:43;;;;;;;16.92;11.38;;;8.20;99.90;;;;;;5092288;28;20225;-74
2021/04/21 02:34:16;;;;;;;19.27;11.80;;;8.20;99.90;;;;;;5092279;28;20237;-76
2021/04/21 02:36:46;;;;;;;19.50;12.57;;;8.20;99.90;;;;;;5092405;28;20209;-75
2021/04/21 02:39:19;;;;;;;19.52;12.18;;;8.10;99.90;;;;;;5093223;28;20693;-75
2021/04/21 02:41:55;;;;;;;23.38;12.68;;;8.10;99.90;;;;;;5095868;28;20304;-76
2021/04/21 02:44:39;;;;;;;21.20;11.98;;;8.10;99.90;;;;;;5096283;28;20233;-74
2021/04/21 02:47:12;;;;;;;18.40;12.93;;;8.10;99.90;;;;;;5096111;28;20288;-73
2021/04/21 02:49:51;;;;;;;18.52;12.98;;;8.10;99.90;;;;;;5095913;28;20229;-74
2021/04/21 02:52:29;;;;;;;18.40;11.48;;;8.00;99.90;;;;;;5095920;28;20225;-75
2021/04/21 02:55:08;;;;;;;18.48;11.63;;;8.00;99.90;;;;;;5096122;28;20244;-75
2021/04/21 02:57:43;;;;;;;16.50;11.23;;;8.00;99.90;;;;;;5095810;28;20698;-74
2021/04/21 03:00:14;;;;;;;19.20;12.35;;;8.00;99.90;;;;;;5095758;28;20256;-74
2021/04/21 03:02:46;;;;;;;21.10;12.93;;;8.00;99.90;;;;;;5095290;28;20733;-74
2021/04/21 03:05:19;;;;;;;21.92;12.32;;;8.00;99.90;;;;;;5095855;28;20293;-73
2021/04/21 03:07:53;;;;;;;22.50;12.43;;;7.90;99.90;;;;;;5095849;28;20221;-75
2021/04/21 03:10:22;;;;;;;19.65;12.68;;;7.90;99.90;;;;;;5096002;28;20186;-74
2021/04/21 03:12:53;;;;;;;25.17;13.23;;;7.90;99.90;;;;;;5095441;28;20313;-73
2021/04/21 03:15:22;;;;;;;19.10;12.75;;;7.80;99.90;;;;;;5095632;28;20206;-73
2021/04/21 03:17:54;;;;;;;21.27;13.10;;;7.80;99.90;;;;;;5095580;28;20739;-76
2021/04/21 03:20:23;;;;;;;18.92;12.73;;;7.80;99.90;;;;;;5095607;28;20202;-75
2021/04/21 03:22:53;;;;;;;18.92;11.80;;;7.80;99.90;;;;;;5095247;28;20305;-78
2021/04/21 03:25:26;;;;;;;18.38;12.73;;;7.90;99.90;;;;;;5095364;28;20766;-75
2021/04/21 03:27:58;;;;;;;21.85;11.70;;;7.70;99.90;;;;;;5095655;28;20210;-76
2021/04/21 03:30:27;;;;;;;23.33;13.02;;;7.60;99.90;;;;;;5097689;28;20292;-73
2021/04/21 03:33:03;;;;;;;22.77;13.02;;;7.60;99.90;;;;;;5097299;28;20279;-72
2021/04/21 03:35:30;;;;;;;24.55;12.27;;;7.70;99.90;;;;;;5097595;28;20206;-72
2021/04/21 03:38:03;;;;;;;20.00;13.10;;;7.50;99.90;;;;;;5096669;28;20199;-72
2021/04/21 03:40:30;;;;;;;21.17;12.50;;;7.60;99.90;;;;;;5097599;28;20555;-72
2021/04/21 03:42:56;;;;;;;19.42;12.52;;;7.60;99.90;;;;;;5097220;28;20262;-72
2021/04/21 03:45:24;;;;;;;21.10;12.98;;;7.70;99.90;;;;;;5096790;28;20202;-72
2021/04/21 03:47:51;;;;;;;20.02;12.43;;;7.60;99.90;;;;;;5096749;28;20214;-72
2021/04/21 03:50:19;;;;;;;21.25;11.90;;;7.70;99.90;;;;;;5097171;28;20206;-72
2021/04/21 03:52:49;;;;;;;21.70;13.25;;;7.70;99.90;;;;;;5096976;28;20313;-72
2021/04/21 03:55:16;;;;;;;18.17;11.98;;;7.80;99.90;;;;;;5097480;28;20621;-72
2021/04/21 03:57:47;;;;;;;20.75;12.57;;;7.80;99.90;;;;;;5094938;28;20291;-72
2021/04/21 04:00:16;;;;;;;24.50;14.75;;;7.80;99.90;;;;;;5096666;28;20327;-72
2021/04/21 04:02:48;;;;;;;25.35;15.23;;;7.80;99.90;;;;;;5096179;28;20696;-72
2021/04/21 04:05:15;;;;;;;23.20;13.90;;;7.70;99.90;;;;;;5096089;28;20284;-72
2021/04/21 04:07:45;;;;;;;21.38;11.82;;;7.70;99.90;;;;;;5095913;28;20206;-72
2021/04/21 04:10:14;;;;;;;23.33;14.18;;;7.70;99.90;;;;;;5098566;28;20238;-72
2021/04/21 04:12:43;;;;;;;23.35;13.93;;;7.70;99.90;;;;;;5098413;28;20226;-72
2021/04/21 04:15:13;;;;;;;21.00;13.68;;;7.70;99.90;;;;;;5097973;28;20202;-72
2021/04/21 04:17:41;;;;;;;23.45;14.23;;;7.60;99.90;;;;;;5096668;28;20241;-72
2021/04/21 04:20:08;;;;;;;22.55;15.45;;;7.50;99.90;;;;;;5097067;28;20205;-72
2021/04/21 04:22:38;;;;;;;24.05;14.13;;;7.40;99.90;;;;;;5096575;28;20305;-72
2021/04/21 04:25:08;;;;;;;22.55;13.55;;;7.40;99.90;;;;;;5097477;28;20229;-72
2021/04/21 04:27:39;;;;;;;21.58;13.13;;;7.30;99.90;;;;;;5097687;28;20284;-72
2021/04/21 04:30:07;;;;;;;23.42;13.82;;;7.30;99.90;;;;;;5097602;28;20247;-72
2021/04/21 04:32:40;;;;;;;24.05;14.30;;;7.40;99.90;;;;;;5097256;28;20225;-72
2021/04/21 04:35:08;;;;;;;25.50;14.05;;;7.30;99.90;;;;;;5097576;28;20205;-72
2021/04/21 04:37:38;;;;;;;23.10;13.40;;;7.30;99.90;;;;;;5097514;28;20281;-72
2021/04/21 04:40:08;;;;;;;28.27;14.48;;;7.20;99.90;;;;;;5097901;28;20540;-73
2021/04/21 04:42:36;;;;;;;24.55;14.13;;;7.40;99.90;;;;;;5097519;28;20218;-72
2021/04/21 04:45:04;;;;;;;24.58;13.25;;;7.40;99.90;;;;;;5097362;28;20262;-72
2021/04/21 04:47:33;;;;;;;23.15;14.52;;;7.50;99.90;;;;;;5097011;28;20667;-72
2021/04/21 04:50:05;;;;;;;22.80;13.73;;;7.50;99.90;;;;;;5097396;28;20552;-72
2021/04/21 04:52:34;;;;;;;28.45;14.82;;;7.60;99.90;;;;;;5097197;28;20320;-72
2021/04/21 04:55:01;;;;;;;23.15;13.73;;;7.60;99.90;;;;;;5097401;28;20198;-72
2021/04/21 04:57:30;;;;;;;21.02;13.18;;;7.60;99.90;;;;;;5096180;28;20259;-72
2021/04/21 04:59:59;;;;;;;24.85;13.98;;;7.70;99.90;;;;;;5096547;28;20198;-72
2021/04/21 05:02:27;;;;;;;29.00;15.98;;;7.70;99.90;;;;;;5095843;28;20229;-72
2021/04/21 05:04:57;;;;;;;25.40;14.50;;;7.60;99.90;;;;;;5096507;28;20210;-73
2021/04/21 05:07:27;;;;;;;28.80;15.43;;;7.60;99.90;;;;;;5096465;28;20192;-72
2021/04/21 05:09:57;;;;;;;26.65;14.20;;;7.60;99.90;;;;;;5095819;28;20218;-73
2021/04/21 05:12:27;;;;;;;24.45;14.07;;;7.70;99.90;;;;;;5096475;28;20222;-72
2021/04/21 05:14:56;;;;;;;25.35;15.73;;;7.70;99.90;;;;;;5096360;28;20206;-72
2021/04/21 05:18:07;;;;;;;24.67;14.75;;;7.70;99.90;;;;;;5095765;28;20212;-72
2021/04/21 05:21:20;;;;;;;25.17;14.25;;;7.80;99.90;;;;;;5095751;28;20233;-72
2021/04/21 05:24:26;;;;;;;26.95;14.00;;;7.90;99.90;;;;;;5096269;28;20292;-73
2021/04/21 05:27:40;;;;;;;23.98;14.18;;;7.80;99.90;;;;;;5096280;28;20544;-72
2021/04/21 05:30:31;;;;;;;23.10;13.98;;;7.60;99.90;;;;;;5096464;28;20194;-72
2021/04/21 05:33:35;;;;;;;24.67;15.15;;;7.70;99.90;;;;;;5095853;28;20281;-73
2021/04/21 05:36:42;;;;;;;25.45;15.30;;;7.70;99.90;;;;;;5096522;28;20206;-72
2021/04/21 05:39:47;;;;;;;28.45;15.85;;;7.60;99.90;;;;;;5081264;28;20282;-73
2021/04/21 05:42:49;;;;;;;26.50;16.20;;;7.50;99.90;;;;;;5063021;28;20778;-73
2021/04/21 05:45:57;;;;;;;27.75;15.40;;;7.40;99.90;;;;;;5095116;28;20197;-73
2021/04/21 05:49:09;;;;;;;27.65;16.33;;;7.40;99.90;;;;;;5095550;28;20210;-72
2021/04/21 05:51:53;;;;;;;26.50;15.18;;;7.40;99.90;;;;;;5096144;28;20228;-73
2021/04/21 05:54:57;;;;;;;30.15;16.73;;;7.40;99.90;;;;;;5096953;28;20647;-72
2021/04/21 05:57:58;;;;;;;31.88;17.45;;;7.50;99.90;;;;;;5096271;28;20644;-72
2021/04/21 06:00:56;;;;;;;30.77;17.63;;;7.50;99.90;;;;;;5034822;28;20211;-72
2021/04/21 06:03:24;;;;;;;29.88;16.92;;;7.50;99.90;;;;;;5095550;28;20322;-72
2021/04/21 06:05:51;;;;;;;27.63;16.45;;;7.50;99.90;;;;;;5097069;28;20233;-72
2021/04/21 06:08:17;;;;;;;29.25;17.45;;;7.50;99.90;;;;;;5096765;28;20228;-72
2021/04/21 06:10:43;;;;;;;26.48;16.27;;;7.50;99.90;;;;;;5096436;28;20289;-72
2021/04/21 06:13:11;;;;;;;35.05;16.90;;;7.40;99.90;;;;;;5097661;28;20228;-72
2021/04/21 06:15:40;;;;;;;27.67;17.55;;;7.50;99.90;;;;;;5100593;28;20206;-73
2021/04/21 06:18:07;;;;;;;25.95;16.48;;;7.60;99.90;;;;;;5100268;28;20250;-73
2021/04/21 06:20:36;;;;;;;28.77;16.30;;;7.80;99.90;;;;;;5098873;28;20198;-72
2021/04/21 06:23:08;;;;;;;32.15;17.35;;;8.00;99.90;;;;;;5099532;28;20222;-73
2021/04/21 06:25:36;;;;;;;23.13;14.93;;;8.20;99.90;;;;;;5099797;28;20289;-72
2021/04/21 06:28:14;;;;;;;27.55;16.02;;;8.40;99.90;;;;;;5099562;28;20249;-73
2021/04/21 06:30:42;;;;;;;26.23;16.00;;;8.50;99.90;;;;;;5099050;28;20228;-72
2021/04/21 06:33:10;;;;;;;29.17;17.60;;;8.70;99.90;;;;;;5098432;28;20278;-73
2021/04/21 06:35:37;;;;;;;23.77;17.20;;;8.80;99.90;;;;;;5099114;28;20198;-73
2021/04/21 06:38:05;;;;;;;32.00;17.00;;;8.60;99.90;;;;;;5098790;28;20660;-73
2021/04/21 06:40:34;;;;;;;28.45;15.68;;;8.70;99.90;;;;;;5099517;28;20201;-72
2021/04/21 06:43:00;;;;;;;25.00;16.10;;;8.60;99.90;;;;;;5099714;28;20313;-72
2021/04/21 06:45:28;;;;;;;23.90;16.30;;;8.50;99.90;;;;;;5099995;28;20234;-72
2021/04/21 06:47:57;;;;;;;24.88;15.43;;;8.50;99.90;;;;;;5100090;28;20216;-73
2021/04/21 06:50:28;;;;;;;26.45;16.70;;;8.60;99.90;;;;;;5098623;28;20292;-73
2021/04/21 06:53:00;;;;;;;29.17;15.23;;;8.70;99.90;;;;;;5098764;28;20253;-73
2021/04/21 06:55:26;;;;;;;26.15;16.40;;;8.90;99.90;;;;;;5097677;28;20629;-72
2021/04/21 06:57:53;;;;;;;28.73;16.73;;;9.00;99.90;;;;;;5097462;28;20589;-73
2021/04/21 07:00:22;;;;;;;24.40;16.33;;;9.20;99.90;;;;;;5097548;28;20297;-73
2021/04/21 07:02:51;;;;;;;26.02;16.55;;;9.30;99.90;;;;;;5097122;28;20233;-73
2021/04/21 07:05:34;;;;;;;27.60;16.38;;;9.50;99.90;;;;;;5097058;28;20202;-72
2021/04/21 07:08:10;;;;;;;23.45;16.52;;;9.60;99.90;;;;;;5098075;28;20652;-72
2021/04/21 07:10:42;;;;;;;32.13;18.92;;;9.60;99.90;;;;;;5097884;28;20206;-72
2021/04/21 07:13:13;;;;;;;29.88;16.23;;;9.50;99.90;;;;;;5097321;28;20226;-73
2021/04/21 07:15:40;;;;;;;26.30;16.10;;;9.60;99.90;;;;;;5096589;28;20720;-72
2021/04/21 07:18:12;;;;;;;25.70;16.48;;;9.70;99.90;;;;;;5097231;28;20198;-72
2021/04/21 07:20:39;;;;;;;26.73;17.65;;;9.80;99.90;;;;;;5097657;28;20183;-73
2021/04/21 07:23:06;;;;;;;24.83;16.42;;;10.10;99.90;;;;;;5096904;28;20244;-72
2021/04/21 07:25:33;;;;;;;30.17;18.00;;;10.20;99.90;;;;;;5096246;28;20674;-72
2021/04/21 07:27:59;;;;;;;26.15;17.27;;;10.10;99.90;;;;;;5097266;28;20212;-73
2021/04/21 07:30:27;;;;;;;26.77;16.73;;;10.10;99.90;;;;;;5096510;28;20305;-73
2021/04/21 07:32:54;;;;;;;28.08;16.92;;;10.40;99.90;;;;;;5096544;28;20222;-73
2021/04/21 07:35:22;;;;;;;23.45;15.77;;;10.50;99.90;;;;;;5096885;28;20212;-72
2021/04/21 07:37:51;;;;;;;25.40;17.08;;;10.70;99.90;;;;;;5097200;28;20256;-73
2021/04/21 07:40:23;;;;;;;23.38;16.45;;;10.90;99.90;;;;;;5097070;28;20205;-73
2021/04/21 07:42:50;;;;;;;26.40;17.45;;;10.90;99.90;;;;;;5096579;28;20218;-73
2021/04/21 07:45:20;;;;;;;29.83;16.13;;;10.90;99.90;;;;;;5096704;28;20206;-74
2021/04/21 07:47:47;;;;;;;27.60;19.33;;;11.00;99.90;;;;;;5096369;28;20214;-73
2021/04/21 07:50:13;;;;;;;23.58;17.27;;;11.10;99.90;;;;;;5083462;28;20293;-72
2021/04/21 07:52:39;;;;;;;26.98;17.55;;;11.00;99.90;;;;;;5086877;28;20221;-75
2021/04/21 07:55:10;;;;;;;28.85;18.15;;;11.20;99.90;;;;;;5084343;28;20202;-74
2021/04/21 07:57:37;;;;;;;27.75;17.45;;;11.40;99.90;;;;;;5084363;28;20270;-75
2021/04/21 08:00:08;;;;;;;25.85;16.98;;;11.60;99.90;;;;;;5085576;28;20277;-75
2021/04/21 08:02:35;;;;;;;26.10;17.17;;;12.20;99.90;;;;;;5087136;28;20298;-75
2021/04/21 08:05:06;;;;;;;24.27;16.13;;;12.80;99.90;;;;;;5085632;28;20289;-76
2021/04/21 08:07:35;;;;;;;25.02;16.60;;;13.60;99.90;;;;;;5085645;28;20222;-76
2021/04/21 08:10:04;;;;;;;23.33;15.98;;;14.10;99.90;;;;;;5082800;28;20230;-74
2021/04/21 08:12:36;;;;;;;25.05;15.30;;;14.70;98.70;;;;;;5075966;28;20305;-73
2021/04/21 08:15:04;;;;;;;23.67;15.27;;;15.30;96.50;;;;;;5075525;28;20188;-73
2021/04/21 08:17:50;;;;;;;22.63;16.00;;;15.20;96.00;;;;;;5075647;28;20203;-73
2021/04/21 08:20:23;;;;;;;25.30;15.90;;;14.90;96.40;;;;;;5075877;28;20652;-73
2021/04/21 08:22:54;;;;;;;20.92;14.82;;;14.80;96.40;;;;;;5075150;28;20775;-75
2021/04/21 08:25:20;;;;;;;20.75;15.38;;;14.80;97.00;;;;;;5075852;28;20211;-74
2021/04/21 08:27:47;;;;;;;22.30;15.80;;;14.90;96.90;;;;;;5078128;28;20724;-74
2021/04/21 08:30:14;;;;;;;19.77;14.57;;;15.00;96.70;;;;;;5077407;28;20321;-73
2021/04/21 08:32:41;;;;;;;24.02;14.73;;;15.30;96.30;;;;;;5078544;28;20268;-74
2021/04/21 08:35:09;;;;;;;22.13;15.63;;;15.30;95.10;;;;;;5078056;28;20294;-75
2021/04/21 08:37:35;;;;;;;21.38;14.77;;;15.30;95.10;;;;;;5076817;28;20230;-74
2021/04/21 08:40:01;;;;;;;21.98;15.48;;;15.20;95.50;;;;;;5078089;28;20199;-74
2021/04/21 08:42:30;;;;;;;21.98;15.00;;;15.20;95.10;;;;;;5076045;28;20226;-74
2021/04/21 08:44:57;;;;;;;20.90;14.13;;;15.50;95.10;;;;;;5075427;28;20273;-72
2021/04/21 08:47:25;;;;;;;20.17;13.65;;;15.90;94.00;;;;;;5075229;28;20646;-74
2021/04/21 08:49:54;;;;;;;20.85;14.75;;;16.20;92.00;;;;;;5075324;28;20607;-74
2021/04/21 08:52:23;;;;;;;20.30;15.02;;;16.40;92.90;;;;;;5075028;28;20229;-74
2021/04/21 08:54:54;;;;;;;21.38;13.90;;;16.80;90.80;;;;;;5075216;28;20331;-74
2021/04/21 08:57:21;;;;;;;19.05;12.38;;;17.00;90.90;;;;;;5074971;28;20305;-74
2021/04/21 08:59:47;;;;;;;19.98;12.95;;;17.80;88.70;;;;;;5074931;28;20225;-74
2021/04/21 09:02:16;;;;;;;17.93;12.13;;;19.10;83.50;;;;;;5074499;28;20251;-72
2021/04/21 09:04:43;;;;;;;19.97;12.60;;;20.80;73.10;;;;;;5074124;28;20451;-73
2021/04/21 09:07:09;;;;;;;17.80;12.33;;;22.00;63.50;;;;;;5074366;28;20532;-73
2021/04/21 09:09:36;;;;;;;14.23;10.80;;;22.90;57.50;;;;;;5074314;28;20488;-73
2021/04/21 09:12:03;;;;;;;13.93;11.07;;;23.40;55.20;;;;;;5074168;28;20986;-73
2021/04/21 09:14:29;;;;;;;15.00;11.40;;;24.60;52.50;;;;;;5074768;28;20505;-73
2021/04/21 09:16:56;;;;;;;13.50;11.20;;;26.00;49.10;;;;;;5073979;28;20455;-73
2021/04/21 09:19:23;;;;;;;14.27;11.70;;;26.50;46.10;;;;;;5074252;28;20555;-73
2021/04/21 09:22:04;;;;;;;11.67;10.47;;;26.80;44.30;;;;;;5074415;28;20476;-73
2021/04/21 09:24:30;;;;;;;13.73;10.87;;;26.30;42.60;;;;;;5074582;28;20448;-73
2021/04/21 09:26:57;;;;;;;13.33;11.60;;;27.30;41.90;;;;;;5073938;28;20443;-73
2021/04/21 09:29:25;;;;;;;11.50;10.30;;;28.50;40.00;;;;;;5074403;28;20480;-74
2021/04/21 09:32:06;;;;;;;13.63;12.23;;;29.10;36.70;;;;;;5074309;28;20469;-73
2021/04/21 09:34:33;;;;;;;12.90;11.57;;;30.30;37.20;;;;;;5074191;28;20592;-74
2021/04/21 09:37:00;;;;;;;13.07;11.77;;;31.50;35.60;;;;;;5074316;28;20537;-73
2021/04/21 09:39:26;;;;;;;14.17;12.83;;;31.90;34.90;;;;;;5074343;28;20473;-74
2021/04/21 09:42:00;;;;;;;14.37;12.87;;;32.30;32.70;;;;;;5074137;28;20468;-74
2021/04/21 09:44:29;;;;;;;15.33;12.37;;;31.50;30.60;;;;;;5074018;28;20590;-73
2021/04/21 09:46:57;;;;;;;12.03;10.83;;;32.00;32.50;;;;;;5073735;28;20449;-73
2021/04/21 09:49:32;;;;;;;13.37;12.03;;;30.10;32.90;;;;;;5073340;28;20531;-74
2021/04/21 09:52:01;;;;;;;12.70;10.70;;;30.60;33.90;;;;;;5073820;28;20470;-74
2021/04/21 09:54:29;;;;;;;12.30;11.07;;;31.10;31.70;;;;;;5074626;28;20535;-74
2021/04/21 09:57:06;;;;;;;12.60;11.30;;;30.30;33.20;;;;;;5073522;28;20493;-73
2021/04/21 09:59:33;;;;;;;12.63;11.33;;;28.80;34.40;;;;;;5074333;28;20984;-74
2021/04/21 10:02:00;;;;;;;11.37;10.17;;;28.50;34.60;;;;;;5074393;28;20469;-73
2021/04/21 10:04:27;;;;;;;14.60;11.40;;;28.00;33.70;;;;;;5075710;28;20445;-74
2021/04/21 10:06:55;;;;;;;12.63;11.30;;;29.30;35.50;;;;;;5076785;28;20476;-74
2021/04/21 10:09:28;;;;;;;10.83;9.30;;;29.40;33.70;;;;;;5077150;28;20922;-74
2021/04/21 10:12:14;;;;;;;10.60;9.37;;;29.80;33.20;;;;;;5076586;28;20483;-74
2021/04/21 10:14:41;;;;;;;11.07;9.93;;;30.50;31.00;;;;;;5075501;28;20535;-74
2021/04/21 10:17:08;;;;;;;10.93;9.70;;;30.80;31.10;;;;;;5075067;28;20534;-74
2021/04/21 10:19:35;;;;;;;11.53;10.37;;;30.30;29.90;;;;;;5076286;28;20508;-74
2021/04/21 10:22:02;;;;;;;13.27;12.10;;;31.20;30.50;;;;;;5075562;28;20568;-74
2021/04/21 10:24:30;;;;;;;11.17;10.00;;;31.20;29.60;;;;;;5076041;28;20534;-74
2021/04/21 10:26:57;;;;;;;11.47;10.27;;;31.60;31.30;;;;;;5075745;28;20449;-74
2021/04/21 10:29:23;;;;;;;11.77;10.33;;;31.20;29.70;;;;;;5076111;28;20447;-74
2021/04/21 10:31:52;;;;;;;10.50;9.37;;;30.30;31.30;;;;;;5075425;28;20844;-74
2021/04/21 10:34:20;;;;;;;10.53;9.43;;;29.80;30.50;;;;;;5075967;28;20527;-74
2021/04/21 10:36:49;;;;;;;10.97;9.97;;;30.30;32.50;;;;;;5074576;28;20502;-73
2021/04/21 10:39:27;;;;;;;11.80;10.10;;;28.90;32.20;;;;;;5074150;28;20570;-74
2021/04/21 10:42:03;;;;;;;9.50;8.60;;;28.00;31.90;;;;;;5074424;28;20859;-74
2021/04/21 10:44:31;;;;;;;9.80;8.60;;;28.60;32.00;;;;;;5074646;28;20517;-74
2021/04/21 10:47:10;;;;;;;9.87;8.87;;;27.90;31.30;;;;;;5074364;28;20452;-74
2021/04/21 10:49:57;;;;;;;10.93;9.83;;;29.00;32.20;;;;;;5076353;28;20445;-74
2021/04/21 10:52:34;;;;;;;10.70;9.60;;;29.80;30.50;;;;;;5074554;28;20461;-74
2021/04/21 10:55:03;;;;;;;10.30;9.03;;;29.60;30.40;;;;;;5074587;28;20448;-73
2021/04/21 10:57:38;;;;;;;12.87;10.80;;;29.30;31.20;;;;;;5073766;28;20455;-74
2021/04/21 11:00:16;;;;;;;11.00;9.83;;;28.60;31.50;;;;;;5074649;28;20973;-74
2021/04/21 11:03:01;;;;;;;10.80;9.60;;;29.20;32.50;;;;;;5080080;28;20526;-74
2021/04/21 11:05:43;;;;;;;11.57;10.00;;;30.50;31.40;;;;;;5078584;28;20821;-74
2021/04/21 11:08:11;;;;;;;9.60;8.70;;;31.50;29.40;;;;;;5078493;28;20485;-74
2021/04/21 11:10:44;;;;;;;8.93;7.93;;;31.50;28.60;;;;;;5078688;28;20459;-74
2021/04/21 11:13:13;;;;;;;10.30;9.13;;;31.80;29.00;;;;;;5078360;28;20517;-74
2021/04/21 11:15:42;;;;;;;8.80;8.00;;;30.60;27.90;;;;;;5076829;28;20444;-73
2021/04/21 11:18:35;;;;;;;9.20;8.20;;;28.70;30.70;;;;;;5077049;28;20453;-74
2021/04/21 11:21:04;;;;;;;9.77;8.70;;;28.10;32.20;;;;;;5077171;28;20773;-74
2021/04/21 11:23:55;;;;;;;9.00;7.57;;;26.30;30.90;;;;;;5077455;28;20619;-73
2021/04/21 11:26:35;;;;;;;10.77;7.50;;;25.20;35.10;;;;;;5077406;28;20451;-73
2021/04/21 11:29:04;;;;;;;9.87;6.93;;;23.90;33.70;;;;;;5076963;28;20869;-75
2021/04/21 11:32:08;;;;;;;8.67;6.40;;;22.70;33.70;;;;;;5077444;28;20492;-75
2021/04/21 11:34:35;;;;;;;8.97;7.17;;;22.00;37.70;;;;;;5079582;28;20474;-76
2021/04/21 11:37:04;;;;;;;10.17;7.53;;;21.20;40.20;;;;;;5078357;28;20447;-73
2021/04/21 11:40:09;;;;;;;8.93;6.97;;;21.00;38.90;;;;;;5078397;28;20487;-75
2021/04/21 11:42:38;;;;;;;6.90;5.93;;;20.80;39.90;;;;;;5077220;28;20478;-75
2021/04/21 11:45:17;;;;;;;9.17;7.10;;;21.00;40.00;;;;;;5077065;28;20447;-74
2021/04/21 11:47:45;;;;;;;7.77;6.97;;;21.10;40.60;;;;;;5077943;28;20458;-75
2021/04/21 11:50:28;;;;;;;10.33;7.97;;;21.20;40.60;;;;;;5079015;28;20441;-75
2021/04/21 11:52:57;;;;;;;9.70;8.23;;;21.00;40.60;;;;;;5075198;28;20482;-75
2021/04/21 11:55:32;;;;;;;8.80;7.33;;;21.30;41.60;;;;;;5076358;28;21029;-75
2021/04/21 11:58:01;;;;;;;9.50;7.00;;;21.50;39.10;;;;;;5076048;28;20963;-75
2021/04/21 12:00:31;;;;;;;9.73;7.73;;;21.50;39.50;;;;;;5077675;28;20576;-76
2021/04/21 12:02:59;;;;;;;11.53;8.70;;;21.60;40.90;;;;;;5077652;28;20468;-75
2021/04/21 12:05:28;;;;;;;11.73;8.03;;;21.60;39.50;;;;;;5077108;28;20976;-75
2021/04/21 12:07:56;;;;;;;11.60;7.70;;;21.60;40.70;;;;;;5077465;28;20531;-75
2021/04/21 12:10:23;;;;;;;9.50;7.37;;;21.70;41.40;;;;;;5077906;28;20436;-75
2021/04/21 12:12:50;;;;;;;9.30;7.03;;;21.80;41.30;;;;;;5077901;28;20552;-75
2021/04/21 12:15:17;;;;;;;10.93;8.10;;;21.80;41.20;;;;;;5075903;28;20528;-74
2021/04/21 12:17:52;;;;;;;10.10;7.20;;;22.00;40.40;;;;;;5075798;28;20472;-75
2021/04/21 12:20:24;;;;;;;8.40;6.90;;;21.90;39.20;;;;;;5075708;28;20565;-75
2021/04/21 12:22:50;;;;;;;7.63;6.50;;;21.70;38.40;;;;;;5075215;28;20551;-75
2021/04/21 12:25:23;;;;;;;7.20;6.10;;;21.80;38.60;;;;;;5075419;28;20447;-75
2021/04/21 12:27:51;;;;;;;8.20;6.23;;;21.50;37.50;;;;;;5075313;28;20454;-75
2021/04/21 12:30:19;;;;;;;7.80;6.37;;;21.40;39.00;;;;;;5075588;28;20489;-75
2021/04/21 12:32:46;;;;;;;8.43;6.23;;;21.50;39.30;;;;;;5075411;28;20472;-75
2021/04/21 12:35:15;;;;;;;8.60;6.57;;;21.50;38.90;;;;;;5075576;28;20452;-74
2021/04/21 12:37:41;;;;;;;8.57;6.90;;;20.90;38.20;;;;;;5075011;28;20450;-74
2021/04/21 12:40:21;;;;;;;8.10;6.60;;;20.50;40.00;;;;;;5074883;28;20565;-74
2021/04/21 12:42:49;;;;;;;9.68;8.00;;;19.90;39.70;;;;;;5075010;28;20472;-74
2021/04/21 12:45:27;;;;;;;9.85;7.10;;;19.60;39.90;;;;;;5076816;28;20644;-75
2021/04/21 12:47:54;;;;;;;9.65;7.00;;;19.30;42.60;;;;;;5076571;28;20293;-75
2021/04/21 12:50:32;;;;;;;9.88;7.13;;;19.50;42.00;;;;;;5076643;28;20291;-75
2021/04/21 12:53:12;;;;;;;10.35;8.10;;;19.40;40.10;;;;;;5076900;28;20314;-75
2021/04/21 12:55:39;;;;;;;10.13;7.20;;;19.10;42.60;;;;;;5076673;28;20203;-74
2021/04/21 12:58:05;;;;;;;8.27;7.07;;;19.30;43.70;;;;;;5076533;28;20309;-75
2021/04/21 13:00:32;;;;;;;10.38;7.78;;;19.60;41.60;;;;;;5074791;28;20478;-75
2021/04/21 13:02:59;;;;;;;9.88;8.05;;;19.50;42.90;;;;;;5075019;28;20616;-74